createdAt,value
2022-11-24T00:00:02.163Z,2.95
2022-11-24T00:01:12.624Z,2.97
2022-11-24T00:02:14.244Z,2.98
2022-11-24T00:03:15.868Z,2.99
2022-11-24T00:04:17.398Z,2.99
2022-11-24T00:05:18.840Z,2.97
2022-11-24T00:06:20.343Z,2.94
2022-11-24T00:07:21.820Z,2.88
2022-11-24T00:08:23.279Z,2.91
2022-11-24T00:09:24.737Z,2.90
2022-11-24T00:10:26.179Z,2.89
2022-11-24T00:11:29.378Z,2.89
2022-11-24T00:12:30.828Z,2.87
2022-11-24T00:13:32.481Z,2.83
2022-11-24T00:14:34.026Z,2.77
2022-11-24T00:15:35.594Z,2.75
2022-11-24T00:16:37.988Z,2.71
2022-11-24T00:17:39.491Z,2.65
2022-11-24T00:18:41.874Z,2.64
2022-11-24T00:19:43.484Z,2.65
2022-11-24T00:20:51.675Z,2.70
2022-11-24T00:21:53.180Z,2.73
2022-11-24T00:22:54.648Z,2.69
2022-11-24T00:23:56.128Z,2.69
2022-11-24T00:24:57.556Z,2.73
2022-11-24T00:26:09.921Z,2.77
2022-11-24T00:27:11.408Z,2.82
2022-11-24T00:28:12.870Z,2.82
2022-11-24T00:29:14.328Z,2.71
2022-11-24T00:30:15.926Z,2.74
2022-11-24T00:31:23.250Z,2.76
2022-11-24T00:32:25.016Z,2.77
2022-11-24T00:33:26.475Z,2.79
2022-11-24T00:34:27.897Z,2.84
2022-11-24T00:35:29.325Z,2.85
2022-11-24T00:36:32.386Z,2.87
2022-11-24T00:37:33.841Z,2.91
2022-11-24T00:38:35.329Z,2.91
2022-11-24T00:39:36.769Z,2.94
2022-11-24T00:40:38.202Z,2.93
2022-11-24T00:41:40.081Z,2.91
2022-11-24T00:42:41.547Z,2.91
2022-11-24T00:43:42.985Z,2.89
2022-11-24T00:44:44.440Z,2.88
2022-11-24T00:45:45.989Z,2.86
2022-11-24T00:46:47.588Z,2.84
2022-11-24T00:47:49.122Z,2.85
2022-11-24T00:48:50.686Z,2.87
2022-11-24T00:49:52.147Z,2.87
2022-11-24T00:51:00.986Z,2.89
2022-11-24T00:52:02.420Z,2.90
2022-11-24T00:53:03.929Z,2.89
2022-11-24T00:54:05.400Z,2.84
2022-11-24T00:55:06.974Z,2.76
2022-11-24T00:56:09.156Z,2.73
2022-11-24T00:57:10.659Z,2.69
2022-11-24T00:58:12.081Z,2.67
2022-11-24T00:59:13.527Z,2.67
2022-11-24T01:00:15.204Z,2.67
2022-11-24T01:01:18.122Z,2.65
2022-11-24T01:02:19.667Z,2.63
2022-11-24T01:03:21.344Z,2.58
2022-11-24T01:04:22.758Z,2.52
2022-11-24T01:05:24.193Z,2.51
2022-11-24T01:06:26.400Z,2.52
2022-11-24T01:07:27.879Z,2.51
2022-11-24T01:08:29.336Z,2.49
2022-11-24T01:09:30.808Z,2.47
2022-11-24T01:10:32.853Z,2.44
2022-11-24T01:11:35.288Z,2.43
2022-11-24T01:12:36.749Z,2.45
2022-11-24T01:13:38.324Z,2.47
2022-11-24T01:14:39.797Z,2.43
2022-11-24T01:15:41.375Z,2.39
2022-11-24T01:16:42.902Z,2.43
2022-11-24T01:17:44.389Z,2.41
2022-11-24T01:18:46.059Z,2.37
2022-11-24T01:19:47.486Z,2.34
2022-11-24T01:20:48.946Z,2.34
2022-11-24T01:21:50.473Z,2.37
2022-11-24T01:22:51.909Z,2.38
2022-11-24T01:23:53.372Z,2.39
2022-11-24T01:24:54.843Z,2.39
2022-11-24T01:25:56.302Z,2.41
2022-11-24T01:26:57.741Z,2.42
2022-11-24T01:27:59.219Z,2.39
2022-11-24T01:29:00.661Z,2.38
2022-11-24T01:30:02.129Z,2.36
2022-11-24T01:31:05.501Z,2.36
2022-11-24T01:32:06.994Z,2.36
2022-11-24T01:33:08.417Z,2.39
2022-11-24T01:34:09.853Z,2.44
2022-11-24T01:35:11.330Z,2.50
2022-11-24T01:36:12.895Z,2.52
2022-11-24T01:37:14.344Z,2.58
2022-11-24T01:38:15.792Z,2.62
2022-11-24T01:39:17.244Z,2.66
2022-11-24T01:40:18.696Z,2.71
2022-11-24T01:41:21.697Z,2.73
2022-11-24T01:42:23.146Z,2.73
2022-11-24T01:43:24.587Z,2.70
2022-11-24T01:44:27.306Z,2.66
2022-11-24T01:45:32.217Z,2.61
2022-11-24T01:46:45.317Z,2.58
2022-11-24T01:47:46.771Z,2.60
2022-11-24T01:48:52.637Z,2.60
2022-11-24T01:49:55.741Z,2.61
2022-11-24T01:51:13.417Z,2.64
2022-11-24T01:52:18.816Z,2.70
2022-11-24T01:53:22.749Z,2.74
2022-11-24T01:54:26.150Z,2.77
2022-11-24T01:55:30.806Z,2.77
2022-11-24T01:56:33.772Z,2.76
2022-11-24T01:57:38.318Z,2.74
2022-11-24T01:58:40.685Z,2.72
2022-11-24T01:59:42.296Z,2.72
2022-11-24T02:00:44.765Z,2.72
2022-11-24T02:01:47.574Z,2.73
2022-11-24T02:02:49.543Z,2.74
2022-11-24T02:03:51.987Z,2.78
2022-11-24T02:04:54.280Z,2.80
2022-11-24T02:06:02.047Z,2.84
2022-11-24T02:07:05.486Z,2.77
2022-11-24T02:08:09.851Z,2.74
2022-11-24T02:09:18.939Z,2.70
2022-11-24T02:10:20.957Z,2.71
2022-11-24T02:11:23.360Z,2.71
2022-11-24T02:12:26.369Z,2.67
2022-11-24T02:13:28.088Z,2.69
2022-11-24T02:14:29.768Z,2.71
2022-11-24T02:15:32.180Z,2.74
2022-11-24T02:16:36.808Z,2.73
2022-11-24T02:17:38.275Z,2.77
2022-11-24T02:18:40.276Z,2.79
2022-11-24T02:19:41.698Z,2.83
2022-11-24T02:20:43.150Z,2.86
2022-11-24T02:21:44.730Z,2.88
2022-11-24T02:23:10.035Z,2.89
2022-11-24T02:24:20.124Z,2.91
2022-11-24T02:25:35.618Z,2.93
2022-11-24T02:26:45.541Z,2.94
2022-11-24T02:27:52.250Z,2.93
2022-11-24T02:28:55.255Z,2.92
2022-11-24T02:29:56.728Z,2.90
2022-11-24T02:30:59.637Z,2.88
2022-11-24T02:32:04.042Z,2.89
2022-11-24T02:33:05.485Z,2.89
2022-11-24T02:34:06.900Z,2.90
2022-11-24T02:35:09.126Z,2.92
2022-11-24T02:36:10.579Z,2.88
2022-11-24T02:37:12.088Z,2.87
2022-11-24T02:38:14.092Z,2.85
2022-11-24T02:39:15.636Z,2.83
2022-11-24T02:40:20.225Z,2.83
2022-11-24T02:41:23.456Z,2.82
2022-11-24T02:42:26.453Z,2.83
2022-11-24T02:43:30.218Z,2.83
2022-11-24T02:44:35.544Z,2.79
2022-11-24T02:45:37.168Z,2.79
2022-11-24T02:46:38.621Z,2.78
2022-11-24T02:47:40.115Z,2.78
2022-11-24T02:48:41.681Z,2.79
2022-11-24T02:49:43.187Z,2.76
2022-11-24T02:50:44.623Z,2.75
2022-11-24T02:51:46.066Z,2.72
2022-11-24T02:52:47.522Z,2.73
2022-11-24T02:53:49.024Z,2.72
2022-11-24T02:54:50.484Z,2.70
2022-11-24T02:55:51.885Z,2.68
2022-11-24T02:56:53.484Z,2.70
2022-11-24T02:57:55.024Z,2.70
2022-11-24T02:58:56.468Z,2.69
2022-11-24T02:59:57.905Z,2.71
2022-11-24T03:00:59.411Z,2.71
2022-11-24T03:02:01.106Z,2.71
2022-11-24T03:03:03.396Z,2.65
2022-11-24T03:04:04.940Z,2.63
2022-11-24T03:05:06.492Z,2.63
2022-11-24T03:06:07.955Z,2.62
2022-11-24T03:07:09.414Z,2.58
2022-11-24T03:08:10.867Z,2.59
2022-11-24T03:09:12.370Z,2.58
2022-11-24T03:10:13.832Z,2.61
2022-11-24T03:11:15.309Z,2.60
2022-11-24T03:12:16.731Z,2.60
2022-11-24T03:13:18.286Z,2.62
2022-11-24T03:14:19.739Z,2.62
2022-11-24T03:15:21.480Z,2.64
2022-11-24T03:16:22.964Z,2.65
2022-11-24T03:17:24.403Z,2.68
2022-11-24T03:18:25.833Z,2.72
2022-11-24T03:19:27.292Z,2.73
2022-11-24T03:20:28.739Z,2.76
2022-11-24T03:21:30.447Z,2.78
2022-11-24T03:22:31.936Z,2.78
2022-11-24T03:23:33.405Z,2.79
2022-11-24T03:24:35.047Z,2.81
2022-11-24T03:25:36.651Z,2.78
2022-11-24T03:26:38.119Z,2.77
2022-11-24T03:27:39.583Z,2.78
2022-11-24T03:28:41.081Z,2.80
2022-11-24T03:29:42.532Z,2.82
2022-11-24T03:30:44.026Z,2.85
2022-11-24T03:31:45.507Z,2.87
2022-11-24T03:32:46.981Z,2.86
2022-11-24T03:33:48.430Z,2.85
2022-11-24T03:34:49.867Z,2.81
2022-11-24T03:35:51.345Z,2.79
2022-11-24T03:36:52.820Z,2.79
2022-11-24T03:37:54.316Z,2.79
2022-11-24T03:38:55.745Z,2.75
2022-11-24T03:39:57.164Z,2.69
2022-11-24T03:40:58.606Z,2.67
2022-11-24T03:42:00.040Z,2.69
2022-11-24T03:43:01.482Z,2.73
2022-11-24T03:44:03.265Z,2.71
2022-11-24T03:45:29.837Z,2.70
2022-11-24T03:46:26.424Z,2.66
2022-11-24T03:47:27.894Z,2.62
2022-11-24T03:48:29.380Z,2.60
2022-11-24T03:49:30.851Z,2.58
2022-11-24T03:50:32.332Z,2.51
2022-11-24T03:51:33.812Z,2.45
2022-11-24T03:52:35.253Z,2.39
2022-11-24T03:53:36.778Z,2.36
2022-11-24T03:54:38.204Z,2.35
2022-11-24T03:55:39.676Z,2.35
2022-11-24T03:56:41.160Z,2.30
2022-11-24T03:57:42.700Z,2.22
2022-11-24T03:58:44.168Z,2.21
2022-11-24T03:59:45.605Z,2.21
2022-11-24T04:00:51.045Z,2.25
2022-11-24T04:01:52.539Z,2.23
2022-11-24T04:02:54.221Z,2.27
2022-11-24T04:03:55.679Z,2.29
2022-11-24T04:04:57.114Z,2.18
2022-11-24T04:05:58.573Z,2.12
2022-11-24T04:06:59.992Z,2.15
2022-11-24T04:08:01.530Z,2.15
2022-11-24T04:09:04.153Z,2.17
2022-11-24T04:10:05.888Z,2.18
2022-11-24T04:11:07.421Z,2.16
2022-11-24T04:12:09.028Z,2.09
2022-11-24T04:13:15.700Z,2.10
2022-11-24T04:14:17.143Z,2.09
2022-11-24T04:15:19.330Z,2.04
2022-11-24T04:16:20.835Z,2.02
2022-11-24T04:17:22.317Z,2.02
2022-11-24T04:18:23.765Z,2.03
2022-11-24T04:19:25.217Z,2.04
2022-11-24T04:20:26.631Z,1.98
2022-11-24T04:21:28.152Z,1.93
2022-11-24T04:22:29.687Z,1.96
2022-11-24T04:23:31.135Z,1.96
2022-11-24T04:24:33.019Z,1.99
2022-11-24T04:25:35.128Z,2.03
2022-11-24T04:26:36.584Z,2.07
2022-11-24T04:27:38.512Z,2.11
2022-11-24T04:28:39.956Z,2.13
2022-11-24T04:29:41.382Z,2.17
2022-11-24T04:30:42.833Z,2.20
2022-11-24T04:31:44.358Z,2.20
2022-11-24T04:32:46.264Z,2.20
2022-11-24T04:33:47.730Z,2.26
2022-11-24T04:34:49.152Z,2.27
2022-11-24T04:35:53.027Z,2.23
2022-11-24T04:36:54.492Z,2.26
2022-11-24T04:37:55.932Z,2.32
2022-11-24T04:39:19.483Z,2.38
2022-11-24T04:40:19.051Z,2.45
2022-11-24T04:41:20.488Z,2.51
2022-11-24T04:42:22.032Z,2.57
2022-11-24T04:43:23.500Z,2.60
2022-11-24T04:44:24.936Z,2.65
2022-11-24T04:45:26.406Z,2.69
2022-11-24T04:46:27.953Z,2.71
2022-11-24T04:47:29.431Z,2.74
2022-11-24T04:48:30.929Z,2.78
2022-11-24T04:49:32.553Z,2.79
2022-11-24T04:50:33.998Z,2.83
2022-11-24T04:51:35.471Z,2.84
2022-11-24T04:52:36.950Z,2.85
2022-11-24T04:53:38.410Z,2.89
2022-11-24T04:54:39.927Z,2.91
2022-11-24T04:55:41.368Z,2.91
2022-11-24T04:56:43.054Z,2.92
2022-11-24T04:57:44.508Z,2.94
2022-11-24T04:58:48.220Z,2.95
2022-11-24T04:59:50.369Z,2.98
2022-11-24T05:00:51.808Z,2.99
2022-11-24T05:01:53.335Z,2.98
2022-11-24T05:02:55.104Z,2.99
2022-11-24T05:03:57.011Z,3.00
2022-11-24T05:04:58.505Z,3.00
2022-11-24T05:05:59.954Z,3.01
2022-11-24T05:07:01.410Z,3.01
2022-11-24T05:08:02.910Z,2.97
2022-11-24T05:09:04.976Z,2.90
2022-11-24T05:10:06.651Z,2.74
2022-11-24T05:11:08.078Z,2.65
2022-11-24T05:12:09.491Z,2.58
2022-11-24T05:13:11.559Z,2.49
2022-11-24T05:14:12.950Z,2.47
2022-11-24T05:15:14.380Z,2.51
2022-11-24T05:16:15.892Z,2.59
2022-11-24T05:17:17.385Z,2.60
2022-11-24T05:18:18.793Z,2.62
2022-11-24T05:19:20.274Z,2.62
2022-11-24T05:20:21.716Z,2.67
2022-11-24T05:21:23.138Z,2.71
2022-11-24T05:22:24.667Z,2.72
2022-11-24T05:23:26.492Z,2.73
2022-11-24T05:24:27.862Z,2.74
2022-11-24T05:25:29.384Z,2.74
2022-11-24T05:26:30.810Z,2.77
2022-11-24T05:27:32.255Z,2.78
2022-11-24T05:28:33.708Z,2.81
2022-11-24T05:29:35.125Z,2.84
2022-11-24T05:30:39.724Z,2.81
2022-11-24T05:31:41.119Z,2.75
2022-11-24T05:32:42.514Z,2.75
2022-11-24T05:33:43.934Z,2.78
2022-11-24T05:34:45.336Z,2.84
2022-11-24T05:35:47.006Z,2.87
2022-11-24T05:36:48.395Z,2.87
2022-11-24T05:37:50.009Z,2.89
2022-11-24T05:38:51.413Z,2.88
2022-11-24T05:39:52.822Z,2.85
2022-11-24T05:40:54.276Z,2.85
2022-11-24T05:41:55.672Z,2.77
2022-11-24T05:42:57.089Z,2.63
2022-11-24T05:43:58.497Z,2.53
2022-11-24T05:44:59.874Z,2.48
2022-11-24T05:46:01.529Z,2.48
2022-11-24T05:47:02.944Z,2.45
2022-11-24T05:48:05.510Z,2.46
2022-11-24T05:49:06.912Z,2.47
2022-11-24T05:50:09.497Z,2.47
2022-11-24T05:51:10.899Z,2.38
2022-11-24T05:52:12.324Z,2.37
2022-11-24T05:53:13.732Z,2.35
2022-11-24T05:54:15.142Z,2.31
2022-11-24T05:56:35.347Z,2.35
2022-11-24T05:57:36.701Z,2.35
2022-11-24T05:58:38.061Z,2.37
2022-11-24T05:59:39.413Z,2.37
2022-11-24T06:00:40.807Z,2.37
2022-11-24T06:01:42.223Z,2.37
2022-11-24T06:02:43.780Z,2.31
2022-11-24T06:03:45.169Z,2.28
2022-11-24T06:04:46.582Z,2.28
2022-11-24T06:05:48.082Z,2.24
2022-11-24T06:06:49.532Z,2.25
2022-11-24T06:07:50.980Z,2.23
2022-11-24T06:08:52.398Z,2.28
2022-11-24T06:09:53.797Z,2.29
2022-11-24T06:10:55.159Z,2.32
2022-11-24T06:11:56.555Z,2.32
2022-11-24T06:12:57.960Z,2.34
2022-11-24T06:13:59.410Z,2.38
2022-11-24T06:15:00.929Z,2.41
2022-11-24T06:16:02.375Z,2.47
2022-11-24T06:17:04.371Z,2.52
2022-11-24T06:18:05.875Z,2.53
2022-11-24T06:19:07.254Z,2.59
2022-11-24T06:20:09.599Z,2.62
2022-11-24T06:21:12.019Z,2.59
2022-11-24T06:22:13.654Z,2.50
2022-11-24T06:23:15.000Z,2.47
2022-11-24T06:24:16.560Z,2.45
2022-11-24T06:25:17.944Z,2.44
2022-11-24T06:26:19.322Z,2.41
2022-11-24T06:27:20.791Z,2.43
2022-11-24T06:28:22.169Z,2.43
2022-11-24T06:29:23.544Z,2.37
2022-11-24T06:30:24.899Z,2.36
2022-11-24T06:31:26.324Z,2.34
2022-11-24T06:32:27.858Z,2.32
2022-11-24T06:33:36.041Z,2.28
2022-11-24T06:34:37.565Z,2.21
2022-11-24T06:35:38.965Z,2.24
2022-11-24T06:36:40.358Z,2.31
2022-11-24T06:37:41.742Z,2.33
2022-11-24T06:38:43.237Z,2.32
2022-11-24T06:39:44.639Z,2.37
2022-11-24T06:40:46.005Z,2.36
2022-11-24T06:41:49.509Z,2.37
2022-11-24T06:42:50.953Z,2.34
2022-11-24T06:43:52.328Z,2.35
2022-11-24T06:44:53.705Z,2.39
2022-11-24T06:45:55.450Z,2.42
2022-11-24T06:46:56.865Z,2.44
2022-11-24T06:47:58.230Z,2.50
2022-11-24T06:48:59.651Z,2.56
2022-11-24T06:50:01.056Z,2.59
2022-11-24T06:51:04.300Z,2.67
2022-11-24T06:52:05.744Z,2.70
2022-11-24T06:53:07.118Z,2.72
2022-11-24T06:54:09.720Z,2.74
2022-11-24T06:55:11.116Z,2.77
2022-11-24T06:56:16.578Z,2.81
2022-11-24T06:57:18.336Z,2.84
2022-11-24T06:58:19.727Z,2.85
2022-11-24T06:59:21.125Z,2.90
2022-11-24T07:00:22.520Z,2.91
2022-11-24T07:01:25.186Z,2.93
2022-11-24T07:02:26.608Z,2.95
2022-11-24T07:03:28.064Z,2.99
2022-11-24T07:04:29.507Z,3.02
2022-11-24T07:05:30.883Z,3.03
2022-11-24T07:06:32.280Z,2.99
2022-11-24T07:07:33.730Z,2.95
2022-11-24T07:08:35.142Z,2.90
2022-11-24T07:09:36.509Z,2.79
2022-11-24T07:10:37.941Z,2.77
2022-11-24T07:11:39.881Z,2.76
2022-11-24T07:12:41.249Z,2.76
2022-11-24T07:13:43.232Z,2.67
2022-11-24T07:14:44.617Z,2.62
2022-11-24T07:15:46.703Z,2.59
2022-11-24T07:16:48.142Z,2.60
2022-11-24T07:17:49.576Z,2.62
2022-11-24T07:18:51.781Z,2.63
2022-11-24T07:19:53.142Z,2.65
2022-11-24T07:20:54.525Z,2.72
2022-11-24T07:21:56.080Z,2.75
2022-11-24T07:22:57.970Z,2.81
2022-11-24T07:23:59.373Z,2.78
2022-11-24T07:25:01.045Z,2.77
2022-11-24T07:26:06.757Z,2.72
2022-11-24T07:27:08.523Z,2.69
2022-11-24T07:28:10.076Z,2.65
2022-11-24T07:29:11.441Z,2.65
2022-11-24T07:30:12.919Z,2.62
2022-11-24T07:31:16.233Z,2.63
2022-11-24T07:32:17.705Z,2.62
2022-11-24T07:33:19.069Z,2.60
2022-11-24T07:34:20.455Z,2.58
2022-11-24T07:35:21.871Z,2.54
2022-11-24T07:36:23.787Z,2.53
2022-11-24T07:37:30.901Z,2.59
2022-11-24T07:38:33.469Z,2.62
2022-11-24T07:39:34.846Z,2.63
2022-11-24T07:40:36.205Z,2.58
2022-11-24T07:41:37.560Z,2.53
2022-11-24T07:42:38.892Z,2.53
2022-11-24T07:43:40.559Z,2.52
2022-11-24T07:44:41.940Z,2.51
2022-11-24T07:45:43.377Z,2.56
2022-11-24T07:46:44.826Z,2.62
2022-11-24T07:47:46.180Z,2.63
2022-11-24T07:48:47.816Z,2.62
2022-11-24T07:49:49.208Z,2.62
2022-11-24T07:50:55.465Z,2.61
2022-11-24T07:51:57.517Z,2.62
2022-11-24T07:53:02.785Z,2.61
2022-11-24T07:54:04.203Z,2.62
2022-11-24T07:55:05.866Z,2.60
2022-11-24T07:56:07.717Z,2.61
2022-11-24T07:57:09.066Z,2.62
2022-11-24T07:58:10.412Z,2.60
2022-11-24T07:59:11.813Z,2.60
2022-11-24T08:00:13.458Z,2.65
2022-11-24T08:01:16.135Z,2.69
2022-11-24T08:02:17.593Z,2.70
2022-11-24T08:03:19.035Z,2.65
2022-11-24T08:04:20.541Z,2.61
2022-11-24T08:05:21.950Z,2.62
2022-11-24T08:06:26.546Z,2.63
2022-11-24T08:07:30.515Z,2.72
2022-11-24T08:08:31.889Z,2.77
2022-11-24T08:09:33.320Z,2.83
2022-11-24T08:10:34.722Z,2.87
2022-11-24T08:11:36.114Z,2.91
2022-11-24T08:12:37.471Z,2.91
2022-11-24T08:13:39.304Z,2.92
2022-11-24T08:14:40.678Z,2.92
2022-11-24T08:15:42.107Z,2.92
2022-11-24T08:16:43.550Z,2.89
2022-11-24T08:17:44.985Z,2.91
2022-11-24T08:18:50.080Z,2.93
2022-11-24T08:19:51.412Z,2.97
2022-11-24T08:20:52.761Z,3.02
2022-11-24T08:21:54.132Z,3.06
2022-11-24T08:22:58.786Z,3.07
2022-11-24T08:24:00.193Z,3.09
2022-11-24T08:25:01.653Z,3.07
2022-11-24T08:26:04.037Z,3.06
2022-11-24T08:27:05.422Z,3.01
2022-11-24T08:28:06.792Z,3.00
2022-11-24T08:29:08.154Z,3.02
2022-11-24T08:30:09.849Z,3.01
2022-11-24T08:31:12.741Z,2.95
2022-11-24T08:32:17.562Z,3.00
2022-11-24T08:33:23.208Z,3.06
2022-11-24T08:34:25.036Z,3.02
2022-11-24T08:35:26.925Z,2.95
2022-11-24T08:36:28.326Z,3.02
2022-11-24T08:37:29.680Z,3.00
2022-11-24T08:38:31.074Z,3.00
2022-11-24T08:39:33.074Z,3.00
2022-11-24T08:40:34.419Z,3.00
2022-11-24T08:41:35.895Z,3.05
2022-11-24T08:42:37.392Z,3.12
2022-11-24T08:43:39.135Z,3.14
2022-11-24T08:44:40.563Z,3.14
2022-11-24T08:45:42.240Z,3.12
2022-11-24T08:46:44.395Z,3.11
2022-11-24T08:47:45.851Z,3.11
2022-11-24T08:48:51.058Z,3.13
2022-11-24T08:49:52.427Z,3.16
2022-11-24T08:50:53.909Z,3.21
2022-11-24T08:51:56.923Z,3.14
2022-11-24T08:52:58.309Z,3.14
2022-11-24T08:54:00.995Z,3.18
2022-11-24T08:55:02.403Z,3.16
2022-11-24T08:56:04.424Z,3.14
2022-11-24T08:57:05.838Z,3.20
2022-11-24T08:58:07.222Z,3.17
2022-11-24T08:59:12.415Z,3.19
2022-11-24T09:00:14.040Z,3.21
2022-11-24T09:01:16.248Z,3.20
2022-11-24T09:02:17.716Z,3.19
2022-11-24T09:03:19.090Z,3.15
2022-11-24T09:04:20.453Z,3.13
2022-11-24T09:05:50.144Z,3.15
2022-11-24T09:06:43.283Z,3.21
2022-11-24T09:07:44.730Z,3.22
2022-11-24T09:08:46.127Z,3.16
2022-11-24T09:09:47.511Z,3.14
2022-11-24T09:10:48.893Z,3.18
2022-11-24T09:11:50.260Z,3.21
2022-11-24T09:12:51.634Z,3.24
2022-11-24T09:13:53.641Z,3.27
2022-11-24T09:14:55.032Z,3.32
2022-11-24T09:15:56.429Z,3.31
2022-11-24T09:16:57.916Z,3.27
2022-11-24T09:17:59.333Z,3.30
2022-11-24T09:19:01.832Z,3.29
2022-11-24T09:20:03.486Z,3.30
2022-11-24T09:21:10.894Z,3.30
2022-11-24T09:22:12.289Z,3.34
2022-11-24T09:23:13.686Z,3.32
2022-11-24T09:24:15.074Z,3.32
2022-11-24T09:25:16.540Z,3.33
2022-11-24T09:26:22.371Z,3.30
2022-11-24T09:27:23.761Z,3.27
2022-11-24T09:28:25.145Z,3.25
2022-11-24T09:29:26.547Z,3.22
2022-11-24T09:30:27.959Z,3.13
2022-11-24T09:31:30.710Z,3.07
2022-11-24T09:32:32.180Z,3.02
2022-11-24T09:33:34.363Z,3.01
2022-11-24T09:34:35.749Z,3.06
2022-11-24T09:35:37.329Z,3.14
2022-11-24T09:36:38.759Z,3.14
2022-11-24T09:37:40.109Z,3.16
2022-11-24T09:38:41.629Z,3.21
2022-11-24T09:39:43.117Z,3.23
2022-11-24T09:40:44.492Z,3.25
2022-11-24T09:42:05.203Z,3.29
2022-11-24T09:43:12.478Z,3.32
2022-11-24T09:44:32.413Z,3.32
2022-11-24T09:46:04.425Z,3.31
2022-11-24T09:47:13.730Z,3.35
2022-11-24T09:48:22.826Z,3.41
2022-11-24T09:49:30.188Z,3.44
2022-11-24T09:50:36.133Z,3.48
2022-11-24T09:51:38.483Z,3.44
2022-11-24T09:52:45.669Z,3.42
2022-11-24T09:54:02.451Z,3.43
2022-11-24T09:55:05.091Z,3.45
2022-11-24T09:56:15.608Z,3.48
2022-11-24T09:57:17.861Z,3.50
2022-11-24T09:58:51.534Z,3.54
2022-11-24T09:59:55.184Z,3.58
2022-11-24T10:00:57.738Z,3.54
2022-11-24T10:02:00.159Z,3.54
2022-11-24T10:03:01.850Z,3.56
2022-11-24T10:04:06.661Z,3.64
2022-11-24T10:05:08.471Z,3.68
2022-11-24T10:06:15.717Z,3.68
2022-11-24T10:07:35.787Z,3.71
2022-11-24T10:08:47.934Z,3.65
2022-11-24T10:09:52.042Z,3.67
2022-11-24T10:10:57.514Z,3.72
2022-11-24T10:12:08.338Z,3.71
2022-11-24T10:13:25.048Z,3.73
2022-11-24T10:14:41.984Z,3.81
2022-11-24T10:15:52.318Z,3.82
2022-11-24T10:17:09.109Z,3.85
2022-11-24T10:18:19.760Z,3.88
2022-11-24T10:19:36.961Z,3.88
2022-11-24T10:20:48.758Z,3.91
2022-11-24T10:21:50.076Z,3.94
2022-11-24T10:23:06.637Z,3.99
2022-11-24T10:24:26.466Z,4.02
2022-11-24T10:25:42.554Z,4.01
2022-11-24T10:27:04.129Z,4.03
2022-11-24T10:28:10.173Z,4.05
2022-11-24T10:29:46.977Z,4.07
2022-11-24T10:30:49.420Z,4.04
2022-11-24T10:31:53.625Z,4.04
2022-11-24T10:33:03.508Z,4.05
2022-11-24T10:34:16.153Z,4.03
2022-11-24T10:35:21.026Z,4.07
2022-11-24T10:36:45.563Z,4.05
2022-11-24T10:37:54.373Z,4.04
2022-11-24T10:39:05.456Z,4.06
2022-11-24T10:40:32.972Z,4.09
2022-11-24T10:41:49.446Z,4.16
2022-11-24T10:42:50.817Z,4.17
2022-11-24T10:43:52.161Z,4.16
2022-11-24T10:45:00.489Z,4.12
2022-11-24T10:46:11.598Z,4.14
2022-11-24T10:47:17.381Z,4.14
2022-11-24T10:48:21.616Z,4.16
2022-11-24T10:49:26.785Z,4.21
2022-11-24T10:50:31.151Z,4.25
2022-11-24T10:51:36.421Z,4.25
2022-11-24T10:52:40.988Z,4.25
2022-11-24T10:53:42.906Z,4.20
2022-11-24T10:55:13.690Z,4.21
2022-11-24T10:56:15.103Z,4.19
2022-11-24T10:57:27.227Z,4.19
2022-11-24T10:58:34.447Z,4.18
2022-11-24T10:59:39.034Z,4.17
2022-11-24T11:00:40.573Z,4.16
2022-11-24T11:01:42.035Z,4.07
2022-11-24T11:02:43.470Z,4.10
2022-11-24T11:03:55.814Z,4.10
2022-11-24T11:04:57.397Z,4.13
2022-11-24T11:06:11.003Z,4.16
2022-11-24T11:07:15.243Z,4.19
2022-11-24T11:08:26.098Z,4.23
2022-11-24T11:09:27.464Z,4.23
2022-11-24T11:10:28.885Z,4.26
2022-11-24T11:11:30.348Z,4.28
2022-11-24T11:12:47.104Z,4.31
2022-11-24T11:13:49.814Z,4.31
2022-11-24T11:14:51.200Z,4.30
2022-11-24T11:15:53.093Z,4.31
2022-11-24T11:16:55.469Z,4.20
2022-11-24T11:17:58.107Z,4.12
2022-11-24T11:19:00.368Z,4.12
2022-11-24T11:20:17.621Z,4.14
2022-11-24T11:21:27.737Z,4.19
2022-11-24T11:22:30.628Z,4.20
2022-11-24T11:23:33.639Z,4.25
2022-11-24T11:24:35.574Z,4.27
2022-11-24T11:25:36.973Z,4.29
2022-11-24T11:26:38.371Z,4.30
2022-11-24T11:27:40.253Z,4.29
2022-11-24T11:28:41.609Z,4.25
2022-11-24T11:31:22.277Z,4.23
2022-11-24T11:34:03.837Z,4.27
2022-11-24T11:35:06.758Z,4.26
2022-11-24T11:36:09.689Z,4.27
2022-11-24T11:37:12.864Z,4.25
2022-11-24T11:38:14.325Z,4.18
2022-11-24T11:39:21.713Z,4.19
2022-11-24T11:40:27.468Z,4.22
2022-11-24T11:41:30.903Z,4.22
2022-11-24T11:43:00.805Z,4.24
2022-11-24T11:44:00.897Z,4.24
2022-11-24T11:45:02.260Z,4.18
2022-11-24T11:46:05.583Z,4.16
2022-11-24T11:47:27.995Z,4.17
2022-11-24T11:48:42.279Z,4.18
2022-11-24T11:49:44.409Z,4.08
2022-11-24T11:51:21.157Z,4.02
2022-11-24T11:52:24.091Z,3.88
2022-11-24T11:53:31.495Z,3.87
2022-11-24T11:54:33.352Z,3.92
2022-11-24T11:55:49.668Z,3.85
2022-11-24T11:57:02.572Z,3.85
2022-11-24T11:58:16.159Z,3.88
2022-11-24T11:59:23.301Z,3.85
2022-11-24T12:00:24.779Z,3.87
2022-11-24T12:01:26.140Z,3.87
2022-11-24T12:02:39.755Z,3.82
2022-11-24T12:03:54.070Z,3.86
2022-11-24T12:04:55.530Z,3.93
2022-11-24T12:06:05.994Z,3.93
2022-11-24T12:07:23.186Z,3.98
2022-11-24T12:09:03.354Z,3.99
2022-11-24T12:10:14.418Z,3.94
2022-11-24T12:11:21.676Z,3.91
2022-11-24T12:12:34.323Z,3.90
2022-11-24T12:13:38.315Z,3.93
2022-11-24T12:15:11.967Z,3.93
2022-11-24T12:16:13.428Z,3.89
2022-11-24T12:17:27.071Z,3.87
2022-11-24T12:18:57.458Z,3.87
2022-11-24T12:20:08.541Z,3.92
2022-11-24T12:21:21.519Z,3.94
2022-11-24T12:22:33.477Z,3.94
2022-11-24T12:23:43.665Z,3.96
2022-11-24T12:24:57.654Z,4.02
2022-11-24T12:26:17.829Z,4.03
2022-11-24T12:27:40.813Z,4.01
2022-11-24T12:29:00.706Z,4.05
2022-11-24T12:30:08.896Z,4.10
2022-11-24T12:31:16.186Z,4.07
2022-11-24T12:32:23.944Z,4.05
2022-11-24T12:33:35.253Z,3.99
2022-11-24T12:34:46.706Z,4.02
2022-11-24T12:36:11.246Z,3.96
2022-11-24T12:37:22.036Z,4.01
2022-11-24T12:38:52.754Z,4.02
2022-11-24T12:40:03.620Z,4.09
2022-11-24T12:42:55.736Z,4.21
2022-11-24T12:43:58.900Z,4.22
2022-11-24T12:45:09.063Z,4.25
2022-11-24T12:46:20.603Z,4.28
2022-11-24T12:47:25.399Z,4.32
2022-11-24T12:48:45.330Z,4.34
2022-11-24T12:49:55.506Z,4.38
2022-11-24T12:50:57.621Z,4.41
2022-11-24T12:52:04.460Z,4.38
2022-11-24T12:53:11.263Z,4.42
2022-11-24T12:54:13.866Z,4.43
2022-11-24T12:55:18.298Z,4.44
2022-11-24T12:56:21.917Z,4.48
2022-11-24T12:57:30.506Z,4.49
2022-11-24T12:58:31.875Z,4.52
2022-11-24T12:59:33.443Z,4.55
2022-11-24T13:00:39.895Z,4.57
2022-11-24T13:01:54.239Z,4.59
2022-11-24T13:03:14.613Z,4.61
2022-11-24T13:04:28.475Z,4.62
2022-11-24T13:05:39.092Z,4.56
2022-11-24T13:07:03.051Z,4.54
2022-11-24T13:08:05.173Z,4.56
2022-11-24T13:09:10.782Z,4.52
2022-11-24T13:10:46.582Z,4.46
2022-11-24T13:12:05.462Z,4.47
2022-11-24T13:13:13.533Z,4.54
2022-11-24T13:14:16.188Z,4.50
2022-11-24T13:15:43.242Z,4.45
2022-11-24T13:17:13.559Z,4.48
2022-11-24T13:18:30.830Z,4.46
2022-11-24T13:19:34.019Z,4.35
2022-11-24T13:20:38.902Z,4.32
2022-11-24T13:21:40.216Z,4.34
2022-11-24T13:22:45.997Z,4.35
2022-11-24T13:23:56.051Z,4.30
2022-11-24T13:25:16.177Z,4.30
2022-11-24T13:26:28.024Z,4.35
2022-11-24T13:27:39.555Z,4.30
2022-11-24T13:29:03.628Z,4.30
2022-11-24T13:30:29.546Z,4.36
2022-11-24T13:31:31.559Z,4.41
2022-11-24T13:32:32.940Z,4.36
2022-11-24T13:33:34.596Z,4.34
2022-11-24T13:34:38.735Z,4.31
2022-11-24T13:35:40.854Z,4.30
2022-11-24T13:36:52.138Z,4.33
2022-11-24T13:37:53.583Z,4.37
2022-11-24T13:38:54.948Z,4.38
2022-11-24T13:40:00.037Z,4.38
2022-11-24T13:41:27.071Z,4.38
2022-11-24T13:42:41.734Z,4.40
2022-11-24T13:44:04.460Z,4.40
2022-11-24T13:45:25.871Z,4.41
2022-11-24T13:46:47.622Z,4.41
2022-11-24T13:47:49.105Z,4.38
2022-11-24T13:48:50.426Z,4.39
2022-11-24T13:49:51.819Z,4.41
2022-11-24T13:50:53.311Z,4.40
2022-11-24T13:52:17.678Z,4.40
2022-11-24T13:53:37.631Z,4.33
2022-11-24T13:54:41.126Z,4.35
2022-11-24T13:55:52.544Z,4.34
2022-11-24T13:57:13.878Z,4.34
2022-11-24T13:58:15.208Z,4.38
2022-11-24T13:59:27.767Z,4.40
2022-11-24T14:00:29.158Z,4.40
2022-11-24T14:01:35.963Z,4.41
2022-11-24T14:02:37.507Z,4.44
2022-11-24T14:03:55.345Z,4.47
2022-11-24T14:05:02.549Z,4.51
2022-11-24T14:06:04.563Z,4.54
2022-11-24T14:07:09.540Z,4.55
2022-11-24T14:08:16.466Z,4.56
2022-11-24T14:09:36.658Z,4.49
2022-11-24T14:10:41.169Z,4.47
2022-11-24T14:11:43.001Z,4.49
2022-11-24T14:12:44.383Z,4.54
2022-11-24T14:13:45.779Z,4.54
2022-11-24T14:14:48.494Z,4.55
2022-11-24T14:16:06.228Z,4.55
2022-11-24T14:17:13.424Z,4.57
2022-11-24T14:18:21.056Z,4.60
2022-11-24T14:19:22.382Z,4.59
2022-11-24T14:20:25.330Z,4.53
2022-11-24T14:21:37.509Z,4.51
2022-11-24T14:22:41.821Z,4.50
2022-11-24T14:23:44.452Z,4.53